createdAt,value
2023-02-01T00:00:05.195Z,2.66
2023-02-01T00:02:17.871Z,2.66
2023-02-01T00:04:30.752Z,2.70
2023-02-01T00:06:43.471Z,2.76
2023-02-01T00:08:56.803Z,2.79
2023-02-01T00:11:12.020Z,2.80
2023-02-01T00:13:24.601Z,2.83
2023-02-01T00:15:37.195Z,2.86
2023-02-01T00:17:55.213Z,2.90
2023-02-01T00:20:09.019Z,2.91
2023-02-01T00:22:21.645Z,2.91
2023-02-01T00:24:34.222Z,2.94
2023-02-01T00:26:46.901Z,3.01
2023-02-01T00:29:00.359Z,3.04
2023-02-01T00:31:13.261Z,3.05
2023-02-01T00:33:26.016Z,3.07
2023-02-01T00:35:39.081Z,3.07
2023-02-01T00:37:51.663Z,3.10
2023-02-01T00:40:04.572Z,3.18
2023-02-01T00:42:17.141Z,3.20
2023-02-01T00:44:34.118Z,3.22
2023-02-01T00:46:46.912Z,3.19
2023-02-01T00:49:00.014Z,3.18
2023-02-01T00:51:20.364Z,3.16
2023-02-01T00:53:33.564Z,3.14
2023-02-01T00:55:47.143Z,3.12
2023-02-01T00:57:59.719Z,3.11
2023-02-01T01:00:12.713Z,3.12
2023-02-01T01:02:28.124Z,3.10
2023-02-01T01:04:41.390Z,3.08
2023-02-01T01:06:53.919Z,3.14
2023-02-01T01:09:08.639Z,3.17
2023-02-01T01:11:27.013Z,3.19
2023-02-01T01:13:39.934Z,3.21
2023-02-01T01:15:52.505Z,3.25
2023-02-01T01:18:06.051Z,3.31
2023-02-01T01:20:19.159Z,3.34
2023-02-01T01:22:31.922Z,3.33
2023-02-01T01:24:45.175Z,3.31
2023-02-01T01:26:57.816Z,3.31
2023-02-01T01:29:11.449Z,3.35
2023-02-01T01:31:25.146Z,3.34
2023-02-01T01:33:38.402Z,3.25
2023-02-01T01:35:51.003Z,3.14
2023-02-01T01:38:04.276Z,3.11
2023-02-01T01:40:17.137Z,3.05
2023-02-01T01:42:29.751Z,2.99
2023-02-01T01:44:59.421Z,2.91
2023-02-01T01:47:12.311Z,2.84
2023-02-01T01:49:27.323Z,2.79
2023-02-01T01:51:48.536Z,2.77
2023-02-01T01:54:12.954Z,2.76
2023-02-01T01:56:27.426Z,2.71
2023-02-01T01:58:40.346Z,2.71
2023-02-01T02:00:54.918Z,2.73
2023-02-01T02:03:16.372Z,2.73
2023-02-01T02:05:30.218Z,2.74
2023-02-01T02:07:47.257Z,2.78
2023-02-01T02:10:01.418Z,2.80
2023-02-01T02:12:14.375Z,2.86
2023-02-01T02:14:28.101Z,2.92
2023-02-01T02:16:49.847Z,2.95
2023-02-01T02:19:05.167Z,3.01
2023-02-01T07:28:50.971Z,4.61
2023-02-01T07:31:04.614Z,4.55
2023-02-01T07:33:22.192Z,4.61
2023-02-01T07:35:35.401Z,4.68
2023-02-01T07:37:47.931Z,4.73
2023-02-01T07:40:00.510Z,4.78
2023-02-01T07:42:13.300Z,4.84
2023-02-01T07:44:25.807Z,4.86
2023-02-01T07:46:40.263Z,4.90
2023-02-01T07:48:52.828Z,4.95
2023-02-01T07:51:11.171Z,4.97
2023-02-01T07:53:23.745Z,5.00
2023-02-01T07:55:39.189Z,5.01
2023-02-01T07:57:51.736Z,5.05
2023-02-01T08:00:23.796Z,5.06
2023-02-01T08:02:36.610Z,5.03
2023-02-01T08:04:49.410Z,5.05
2023-02-01T08:07:01.962Z,5.09
2023-02-01T08:09:14.721Z,5.07
2023-02-01T08:11:27.775Z,5.09
2023-02-01T08:13:40.664Z,5.13
2023-02-01T08:15:53.277Z,5.13
2023-02-01T08:18:06.105Z,5.14
2023-02-01T08:20:19.862Z,5.15
2023-02-01T08:22:33.596Z,5.14
2023-02-01T08:24:49.189Z,5.17
2023-02-01T08:27:02.959Z,5.23
2023-02-01T08:29:15.537Z,5.31
2023-02-01T08:31:29.822Z,5.32
2023-02-01T08:33:44.015Z,5.35
2023-02-01T08:35:56.544Z,5.35
2023-02-01T08:38:09.108Z,5.38
2023-02-01T08:40:22.815Z,5.45
2023-02-01T08:42:53.489Z,5.52
2023-02-01T08:45:06.509Z,5.48
2023-02-01T08:47:19.080Z,5.51
2023-02-01T08:49:31.676Z,5.54
2023-02-01T08:51:44.269Z,5.59
2023-02-01T08:53:56.774Z,5.56
2023-02-01T08:56:11.875Z,5.51
2023-02-01T08:58:24.455Z,5.40
2023-02-01T09:00:37.014Z,5.37
2023-02-01T09:02:49.565Z,5.36
2023-02-01T09:05:02.110Z,5.24
2023-02-01T09:07:14.707Z,5.17
2023-02-01T09:09:29.525Z,5.15
2023-02-01T09:11:42.208Z,5.14
2023-02-01T09:13:54.761Z,5.17
2023-02-01T09:16:07.494Z,5.21
2023-02-01T09:18:20.343Z,5.19
2023-02-01T09:20:32.883Z,5.21
2023-02-01T09:22:45.474Z,5.30
2023-02-01T09:24:58.099Z,5.37
2023-02-01T09:27:10.868Z,5.39
2023-02-01T09:29:23.415Z,5.47
2023-02-01T09:31:36.199Z,5.56
2023-02-01T09:33:48.867Z,5.60
2023-02-01T09:36:03.838Z,5.65
2023-02-01T09:38:16.461Z,5.65
2023-02-01T09:40:29.122Z,5.65
2023-02-01T09:43:08.359Z,5.69
2023-02-01T09:46:06.021Z,5.67
2023-02-01T09:48:22.391Z,5.62
2023-02-01T09:50:40.348Z,5.64
2023-02-01T09:53:11.628Z,5.65
2023-02-01T09:55:33.903Z,5.68
2023-02-01T09:58:10.946Z,5.70
2023-02-01T10:00:51.443Z,5.74
2023-02-01T10:03:05.083Z,5.70
2023-02-01T10:05:31.857Z,5.77
2023-02-01T10:07:59.282Z,5.78
2023-02-01T10:10:22.488Z,5.78
2023-02-01T10:12:55.929Z,5.81
2023-02-01T10:15:50.333Z,5.85
2023-02-01T10:18:35.351Z,5.86
2023-02-01T10:20:57.949Z,5.89
2023-02-01T10:23:35.052Z,5.88
2023-02-01T10:26:17.555Z,5.97
2023-02-01T10:28:37.590Z,6.00
2023-02-01T10:30:50.368Z,6.03
2023-02-01T10:33:14.004Z,6.13
2023-02-01T10:35:34.458Z,6.07
2023-02-01T10:37:47.710Z,6.04
2023-02-01T10:40:16.359Z,6.05
2023-02-01T10:42:30.625Z,6.04
2023-02-01T10:44:46.473Z,6.10
2023-02-01T10:46:59.086Z,6.08
2023-02-01T10:49:41.684Z,6.14
2023-02-01T10:52:31.594Z,6.08
2023-02-01T10:54:44.349Z,6.02
2023-02-01T10:56:56.945Z,6.00
2023-02-01T10:59:17.885Z,6.03
2023-02-01T11:01:42.183Z,5.93
2023-02-01T11:03:57.093Z,5.88
2023-02-01T11:06:22.638Z,5.86
2023-02-01T11:08:45.049Z,5.83
2023-02-01T11:11:03.659Z,5.76
2023-02-01T11:13:19.315Z,5.68
2023-02-01T11:15:32.118Z,5.70
2023-02-01T11:17:47.441Z,5.66
2023-02-01T11:20:01.653Z,5.60
2023-02-01T11:22:15.267Z,5.59
2023-02-01T11:24:36.443Z,5.55
2023-02-01T11:26:49.170Z,5.51
2023-02-01T11:29:05.980Z,5.53
2023-02-01T11:31:19.829Z,5.51
2023-02-01T11:33:36.164Z,5.49
2023-02-01T11:35:49.860Z,5.50
2023-02-01T11:38:13.209Z,5.53
2023-02-01T11:40:28.600Z,5.57
2023-02-01T11:42:58.059Z,5.61
2023-02-01T11:45:27.036Z,5.60
2023-02-01T11:47:41.543Z,5.51
2023-02-01T11:50:00.317Z,5.43
2023-02-01T11:52:31.069Z,5.39
2023-02-01T11:55:02.142Z,5.27
2023-02-01T11:57:23.457Z,5.16
2023-02-01T12:00:07.406Z,5.06
2023-02-01T12:02:41.364Z,4.94
2023-02-01T12:05:20.025Z,4.92
2023-02-01T12:07:56.163Z,4.86
2023-02-01T12:10:29.854Z,4.86
2023-02-01T12:13:07.416Z,4.84
2023-02-01T12:15:48.146Z,4.85
2023-02-01T12:18:22.663Z,4.86
2023-02-01T12:20:41.136Z,4.90
2023-02-01T12:22:58.100Z,4.91
2023-02-01T12:25:32.609Z,4.97
2023-02-01T12:27:50.282Z,4.97
2023-02-01T12:30:37.295Z,5.04
2023-02-01T12:32:55.820Z,5.04
2023-02-01T12:35:25.446Z,5.04
2023-02-01T12:38:01.741Z,5.04
2023-02-01T12:40:37.933Z,5.00
2023-02-01T12:43:04.529Z,5.01
2023-02-01T12:45:39.144Z,5.01
2023-02-01T12:47:58.582Z,5.05
2023-02-01T12:50:23.089Z,5.09
2023-02-01T12:52:39.615Z,5.08
2023-02-01T12:55:06.484Z,5.06
2023-02-01T12:57:27.753Z,5.04
2023-02-01T12:59:59.056Z,5.02
2023-02-01T13:02:26.139Z,5.06
2023-02-01T13:05:02.808Z,5.06
2023-02-01T13:07:19.573Z,5.03
2023-02-01T13:09:45.123Z,5.01
2023-02-01T13:12:08.290Z,4.97
2023-02-01T13:14:26.393Z,4.96
2023-02-01T13:16:46.134Z,4.98
2023-02-01T13:19:06.293Z,4.98
2023-02-01T13:21:28.533Z,4.96
2023-02-01T13:23:45.220Z,5.01
2023-02-01T13:25:58.098Z,5.09
2023-02-01T13:28:28.643Z,5.13
2023-02-01T13:31:05.027Z,5.14
2023-02-01T13:33:55.675Z,5.15
2023-02-01T13:36:44.343Z,5.14
2023-02-01T13:39:22.385Z,5.06
2023-02-01T13:41:53.193Z,5.04
2023-02-01T13:44:13.844Z,5.05
2023-02-01T13:46:27.833Z,5.13
2023-02-01T13:48:47.995Z,5.11
2023-02-01T13:51:01.315Z,5.20
2023-02-01T13:53:14.570Z,5.25
2023-02-01T13:55:32.733Z,5.30
2023-02-01T13:57:46.553Z,5.40
2023-02-01T14:00:08.695Z,5.50
2023-02-01T14:02:39.557Z,5.62
2023-02-01T14:04:52.174Z,5.62
2023-02-01T14:07:04.849Z,5.62
2023-02-01T14:09:20.876Z,5.58
2023-02-01T14:11:39.610Z,5.55
2023-02-01T14:13:52.264Z,5.46
2023-02-01T14:16:05.029Z,5.36
2023-02-01T14:18:36.175Z,5.34
2023-02-01T14:20:54.059Z,5.30
2023-02-01T14:23:13.572Z,5.20
2023-02-01T14:25:26.428Z,5.13
2023-02-01T14:27:39.669Z,5.07
2023-02-01T14:29:59.102Z,5.05
2023-02-01T14:32:19.318Z,5.08
2023-02-01T14:34:43.928Z,5.12
2023-02-01T14:37:04.809Z,5.13
2023-02-01T14:40:02.221Z,5.11
2023-02-01T14:42:19.341Z,4.97
2023-02-01T14:44:36.993Z,4.96
2023-02-01T14:47:27.115Z,4.98
2023-02-01T14:49:57.010Z,4.89
2023-02-01T14:52:16.615Z,4.85
2023-02-01T14:54:30.004Z,4.84
2023-02-01T14:56:42.911Z,4.86
2023-02-01T14:59:01.635Z,4.87
2023-02-01T15:01:22.457Z,4.87
2023-02-01T15:03:48.857Z,4.89
2023-02-01T15:06:02.435Z,4.88
2023-02-01T15:08:23.974Z,4.90
2023-02-01T15:10:45.297Z,4.91
2023-02-01T15:12:57.934Z,4.91
2023-02-01T15:15:18.784Z,4.89
2023-02-01T15:17:35.549Z,4.87
2023-02-01T15:20:19.331Z,4.88
2023-02-01T15:22:32.647Z,4.81
2023-02-01T15:24:53.341Z,4.82
2023-02-01T15:27:07.577Z,4.84
2023-02-01T15:29:22.258Z,4.89
2023-02-01T15:31:41.850Z,4.93
2023-02-01T15:33:58.568Z,4.93
2023-02-01T15:36:18.606Z,4.97
2023-02-01T15:38:37.597Z,4.96
2023-02-01T15:41:14.498Z,4.96
2023-02-01T15:43:29.529Z,4.93
2023-02-01T15:45:42.143Z,4.94
2023-02-01T15:47:56.870Z,4.95
2023-02-01T15:50:13.909Z,4.92
2023-02-01T15:52:28.935Z,4.90
2023-02-01T15:54:47.516Z,4.88
2023-02-01T15:57:03.291Z,4.87
2023-02-01T15:59:18.538Z,4.85
2023-02-01T16:01:31.758Z,4.82
2023-02-01T16:03:48.317Z,4.79
2023-02-01T16:06:03.446Z,4.79
2023-02-01T16:08:21.389Z,4.79
2023-02-01T16:10:40.736Z,4.75
2023-02-01T16:12:58.628Z,4.74
2023-02-01T16:15:11.242Z,4.74
2023-02-01T16:17:24.118Z,4.75
2023-02-01T16:19:36.621Z,4.74
2023-02-01T16:21:49.166Z,4.70
2023-02-01T16:24:04.823Z,4.71
2023-02-01T16:26:17.810Z,4.68
2023-02-01T16:28:30.775Z,4.67
2023-02-01T16:30:43.352Z,4.66
2023-02-01T16:32:58.694Z,4.62
2023-02-01T16:35:20.982Z,4.56
2023-02-01T16:37:37.268Z,4.49
2023-02-01T16:39:49.927Z,4.46
2023-02-01T16:42:11.499Z,4.43
2023-02-01T16:44:24.097Z,4.40
2023-02-01T16:46:41.181Z,4.35
2023-02-01T16:49:00.110Z,4.28
2023-02-01T16:51:14.922Z,4.25
2023-02-01T16:53:30.945Z,4.24
2023-02-01T16:55:44.464Z,4.20
2023-02-01T16:57:57.088Z,4.18
2023-02-01T17:00:23.948Z,4.15
2023-02-01T17:02:37.719Z,4.09
2023-02-01T17:04:50.747Z,4.07
2023-02-01T17:07:09.541Z,4.06
2023-02-01T17:09:22.161Z,4.02
2023-02-01T17:11:34.825Z,3.99
2023-02-01T17:13:47.775Z,4.01
2023-02-01T17:16:16.949Z,3.99
2023-02-01T17:18:32.737Z,3.92
2023-02-01T17:20:47.832Z,3.90
2023-02-01T17:23:00.893Z,3.88
2023-02-01T17:25:22.670Z,3.86
2023-02-01T17:27:37.047Z,3.86
2023-02-01T17:29:49.783Z,3.83
2023-02-01T17:32:05.552Z,3.82
2023-02-01T17:34:19.214Z,3.82
2023-02-01T17:36:31.875Z,3.82
2023-02-01T17:38:50.882Z,3.83
2023-02-01T17:41:06.589Z,3.83
2023-02-01T17:43:22.846Z,3.84
2023-02-01T17:45:40.654Z,3.83
2023-02-01T17:47:53.283Z,3.84
2023-02-01T17:50:06.281Z,3.86
2023-02-01T17:52:19.082Z,3.89
2023-02-01T17:54:32.103Z,3.91
2023-02-01T17:56:44.616Z,3.96
2023-02-01T17:58:57.203Z,3.98
2023-02-01T18:01:19.125Z,4.00
2023-02-01T18:03:36.105Z,4.03
2023-02-01T18:05:53.492Z,4.11
2023-02-01T18:08:07.635Z,4.20
2023-02-01T18:10:20.213Z,4.26
2023-02-01T18:12:33.794Z,4.32
2023-02-01T18:14:46.617Z,4.36
2023-02-01T18:16:59.406Z,4.37
2023-02-01T18:19:12.096Z,4.37
2023-02-01T18:21:24.958Z,4.40
2023-02-01T18:23:37.527Z,4.42
2023-02-01T18:25:52.592Z,4.47
2023-02-01T18:28:05.473Z,4.50
2023-02-01T18:30:23.031Z,4.56
2023-02-01T18:32:36.095Z,4.53
2023-02-01T18:34:48.743Z,4.43
2023-02-01T18:37:01.863Z,4.30
2023-02-01T18:39:14.367Z,4.23
2023-02-01T18:41:26.992Z,4.27
2023-02-01T18:43:39.546Z,4.24
2023-02-01T18:45:52.617Z,4.20
2023-02-01T18:48:06.979Z,4.17
2023-02-01T18:50:20.197Z,4.18
2023-02-01T18:52:32.840Z,4.20
2023-02-01T18:54:58.811Z,4.20
2023-02-01T18:57:16.069Z,4.20
2023-02-01T18:59:31.359Z,4.20
2023-02-01T19:01:44.900Z,4.24
2023-02-01T19:03:59.113Z,4.27
2023-02-01T19:06:18.094Z,4.29
2023-02-01T19:08:30.710Z,4.29
2023-02-01T19:10:43.484Z,4.34
2023-02-01T19:12:56.212Z,4.34
2023-02-01T19:15:15.831Z,4.37
2023-02-01T19:17:29.681Z,4.36
2023-02-01T19:19:44.250Z,4.38
2023-02-01T19:21:56.900Z,4.38
2023-02-01T19:24:09.507Z,4.42
2023-02-01T19:26:22.380Z,4.46
2023-02-01T19:28:35.052Z,4.52
2023-02-01T19:30:47.739Z,4.56
2023-02-01T19:33:02.670Z,4.55
2023-02-01T19:35:19.499Z,4.58
2023-02-01T19:37:32.232Z,4.64
2023-02-01T19:39:44.910Z,4.71
2023-02-01T19:42:02.728Z,4.74
2023-02-01T19:44:16.085Z,4.73
2023-02-01T19:46:28.860Z,4.76
2023-02-01T19:48:41.743Z,4.77
2023-02-01T19:50:55.430Z,4.77
2023-02-01T19:53:08.384Z,4.78
2023-02-01T19:55:21.443Z,4.73
2023-02-01T19:57:36.241Z,4.66
2023-02-01T19:59:48.823Z,4.56
2023-02-01T20:02:00.740Z,4.49
2023-02-01T20:04:15.226Z,4.41
2023-02-01T20:06:29.543Z,4.32
2023-02-01T20:08:42.151Z,4.22
2023-02-01T20:10:54.793Z,4.11
2023-02-01T20:13:07.475Z,4.00
2023-02-01T20:15:22.449Z,3.85
2023-02-01T20:17:36.547Z,3.74
2023-02-01T20:19:49.135Z,3.64
2023-02-01T20:22:02.116Z,3.57
2023-02-01T20:24:19.596Z,3.46
2023-02-01T20:26:34.699Z,3.37
2023-02-01T20:28:47.573Z,3.31
2023-02-01T20:31:01.554Z,3.25
2023-02-01T20:33:14.470Z,3.16
2023-02-01T20:35:27.461Z,3.13
2023-02-01T20:37:42.844Z,3.13
2023-02-01T20:39:55.954Z,3.12
2023-02-01T20:42:08.484Z,3.10
2023-02-01T20:44:21.321Z,3.08
2023-02-01T20:46:34.017Z,3.07
2023-02-01T20:48:48.571Z,3.08
2023-02-01T20:51:01.854Z,3.01
2023-02-01T20:53:25.276Z,2.97
2023-02-01T20:55:39.278Z,2.90
2023-02-01T20:57:55.216Z,2.88
2023-02-01T21:00:10.415Z,2.85
2023-02-01T21:02:24.449Z,2.78
2023-02-01T21:04:37.526Z,2.75
2023-02-01T21:06:50.201Z,2.71
2023-02-01T21:09:03.026Z,2.67
2023-02-01T21:11:18.917Z,2.66
2023-02-01T21:13:36.879Z,2.64
2023-02-01T21:15:49.934Z,2.63
2023-02-01T21:18:06.691Z,2.62
2023-02-01T21:20:20.020Z,2.56
2023-02-01T21:22:32.956Z,2.59
2023-02-01T21:24:45.863Z,2.60
2023-02-01T21:26:58.761Z,2.60
2023-02-01T21:29:15.767Z,2.60
2023-02-01T21:31:30.811Z,2.63
2023-02-01T21:33:47.203Z,2.63
2023-02-01T21:36:00.565Z,2.62
2023-02-01T21:38:13.387Z,2.62
2023-02-01T21:40:26.386Z,2.61
2023-02-01T21:42:40.659Z,2.62
2023-02-01T21:44:53.997Z,2.62
2023-02-01T21:47:08.038Z,2.61
2023-02-01T21:49:28.735Z,2.60
2023-02-01T21:51:41.981Z,2.61
2023-02-01T21:53:56.269Z,2.61
2023-02-01T21:56:08.984Z,2.62
2023-02-01T21:58:21.600Z,2.63
2023-02-01T22:00:34.259Z,2.62
2023-02-01T22:02:46.931Z,2.64
2023-02-01T22:04:59.647Z,2.68
2023-02-01T22:07:12.632Z,2.72
2023-02-01T22:09:26.413Z,2.75
2023-02-01T22:11:38.870Z,2.79
2023-02-01T22:13:51.936Z,2.82
2023-02-01T22:16:04.750Z,2.85
2023-02-01T22:18:19.058Z,2.86
2023-02-01T22:20:31.661Z,2.90
2023-02-01T22:22:48.098Z,2.96
2023-02-01T22:25:00.671Z,2.95
2023-02-01T22:27:14.748Z,2.96
2023-02-01T22:29:27.741Z,2.97
2023-02-01T22:31:44.068Z,3.01
2023-02-01T22:33:56.918Z,3.05
2023-02-01T22:36:09.650Z,3.09
2023-02-01T22:38:22.794Z,3.10
2023-02-01T22:40:35.383Z,3.12
2023-02-01T22:42:47.986Z,3.14
2023-02-01T22:45:01.403Z,3.19
2023-02-01T22:47:14.192Z,3.22
2023-02-01T22:49:26.879Z,3.25
2023-02-01T22:51:39.489Z,3.26
2023-02-01T22:53:56.845Z,3.30
2023-02-01T22:56:11.799Z,3.30
2023-02-01T22:58:24.791Z,3.32
2023-02-01T23:00:37.356Z,3.35
2023-02-01T23:02:49.990Z,3.38
2023-02-01T23:05:02.812Z,3.40
2023-02-01T23:07:15.435Z,3.42
2023-02-01T23:09:28.106Z,3.44
2023-02-01T23:11:41.837Z,3.48
2023-02-01T23:13:55.364Z,3.47
2023-02-01T23:16:10.940Z,3.45
2023-02-01T23:18:24.470Z,3.49
2023-02-01T23:20:40.478Z,3.49
2023-02-01T23:22:53.079Z,3.50
2023-02-01T23:25:06.258Z,3.52
2023-02-01T23:27:18.819Z,3.56
2023-02-01T23:29:31.440Z,3.58
2023-02-01T23:31:44.005Z,3.61
2023-02-01T23:33:57.607Z,3.64
2023-02-01T23:36:12.719Z,3.65
2023-02-01T23:38:26.005Z,3.66
2023-02-01T23:40:38.548Z,3.66
2023-02-01T23:43:11.066Z,3.67
2023-02-01T23:45:24.094Z,3.63
2023-02-01T23:47:36.931Z,3.64
2023-02-01T23:49:49.524Z,3.62
2023-02-01T23:52:02.452Z,3.60
2023-02-01T23:54:15.008Z,3.60
2023-02-01T23:56:33.257Z,3.63
2023-02-01T23:58:46.582Z,3.64
